Météo Nord-Pas-de-Calais   La météo au plus près de chez vous

Station météorologique

Observations météo à Rocroi (08367)

08367002 382 m Dernier relevé à 13:48
19.5°C
Humidité 74 % Vent 12.6 km/h

Journée consultée

Jeudi 3 Septembre 2026

Synthèse de la journée

Périodes de référence en UTC

Température maximale

20°C

à 12:18

06h 06h

Température minimale

12.6°C

à 07:12

18h 18h

Rafale maximale

34 km/h

à 11:42

00h 00h

Précipitations

0 mm

Cumul quotidien

06h 06h

Graphiques de la journée

Heure locale Réduire

Données détaillées

Relevés météo

Pas de 6 minutes Afficher les relevés infra-horaires
Relevés météo détaillés à Rocroi pour le Jeudi 3 Septembre 2026
Heure Température °C Point de rosée °C Humidité % Vent moyen (raf.), km/h Précipitations mm
13:48 19.5 °C 15.6 °C 78 % 9 km/h (20 km/h) 0 mm0 mm
13:42 19.6 °C 15.3 °C 76 % 12 km/h (20 km/h) 0 mm0 mm
13:36 19.7 °C 15.6 °C 77 % 12 km/h (19 km/h) 0 mm0 mm
13:30 19.6 °C 15.5 °C 77 % 15 km/h (26 km/h) 0 mm0 mm
13:24 19.6 °C 15.3 °C 76 % 16 km/h (29 km/h) 0 mm0 mm
13:18 19.6 °C 15.3 °C 76 % 18 km/h (28 km/h) 0 mm0 mm
13:12 19.8 °C 15.2 °C 75 % 17 km/h (28 km/h) 0 mm0 mm
13:06 19.9 °C 15.3 °C 75 % 15 km/h (25 km/h) 0 mm0 mm
13:00 19.7 °C 15.1 °C 75 % 18 km/h (29 km/h) 0 mm0 mm
12:54 19.6 °C 15 °C 75 % 16 km/h (31 km/h) 0 mm0 mm
12:48 19.8 °C 15 °C 74 % 13 km/h (27 km/h) 0 mm0 mm
12:42 19.8 °C 15 °C 74 % 16 km/h (28 km/h) 0 mm0 mm
12:36 19.8 °C 14.8 °C 73 % 16 km/h (28 km/h) 0 mm0 mm
12:30 19.9 °C 15.1 °C 74 % 17 km/h (32 km/h) 0 mm0 mm
12:24 19.9 °C 14.7 °C 72 % 17 km/h (32 km/h) 0 mm0 mm
12:18 20 °C 15 °C 73 % 15 km/h (27 km/h) 0 mm0 mm
12:12 19.9 °C 15.1 °C 74 % 17 km/h (29 km/h) 0 mm0 mm
12:06 19.8 °C 15.2 °C 75 % 17 km/h (27 km/h) 0 mm0 mm
12:00 19.5 °C 14.9 °C 75 % 20 km/h (32 km/h) 0 mm0 mm
11:54 19.5 °C 14.9 °C 75 % 22 km/h (33 km/h) 0 mm0 mm
11:48 19.1 °C 14.6 °C 75 % 23 km/h (34 km/h) 0 mm0 mm
11:42 19.1 °C 14.6 °C 75 % 21 km/h (34 km/h) 0 mm0 mm
11:36 19.1 °C 14.6 °C 75 % 19 km/h (32 km/h) 0 mm0 mm
11:30 18.9 °C 14.4 °C 75 % 17 km/h (30 km/h) 0 mm0 mm
11:24 18.8 °C 14.7 °C 77 % 18 km/h (30 km/h) 0 mm0 mm
11:18 18.5 °C 14.4 °C 77 % 19 km/h (32 km/h) 0 mm0 mm
11:12 18.6 °C 14.5 °C 77 % 15 km/h (29 km/h) 0 mm0 mm
11:06 18.4 °C 14.3 °C 77 % 15 km/h (29 km/h) 0 mm0 mm
11:00 18.8 °C 14.5 °C 76 % 13 km/h (23 km/h) 0 mm0 mm
10:54 18.5 °C 15 °C 80 % 14 km/h (23 km/h) 0 mm0 mm
10:48 18 °C 14.1 °C 78 % 15 km/h (24 km/h) 0 mm0 mm
10:42 17.5 °C 13.8 °C 79 % 16 km/h (27 km/h) 0 mm0 mm
10:36 17.4 °C 13.7 °C 79 % 16 km/h (27 km/h) 0 mm0 mm
10:30 17.3 °C 13.8 °C 80 % 16 km/h (25 km/h) 0 mm0 mm
10:24 17.1 °C 13.4 °C 79 % 15 km/h (25 km/h) 0 mm0 mm
10:18 17.1 °C 13.4 °C 79 % 15 km/h (25 km/h) 0 mm0 mm
10:12 17 °C 13.3 °C 79 % 14 km/h (22 km/h) 0 mm0 mm
10:06 16.8 °C 13.1 °C 79 % 15 km/h (25 km/h) 0 mm0 mm
10:00 16.7 °C 12.8 °C 78 % 16 km/h (25 km/h) 0 mm0 mm
09:54 16.6 °C 12.5 °C 77 % 14 km/h (23 km/h) 0 mm0 mm
09:48 16.7 °C 12.8 °C 78 % 13 km/h (22 km/h) 0 mm0 mm
09:42 16.5 °C 12.3 °C 76 % 14 km/h (20 km/h) 0 mm0 mm
09:36 16.4 °C 12.2 °C 76 % 15 km/h (22 km/h) 0 mm0 mm
09:30 16.2 °C 12 °C 76 % 15 km/h (22 km/h) 0 mm0 mm
09:24 16.1 °C 12.1 °C 77 % 12 km/h (19 km/h) 0 mm0 mm
09:18 16.1 °C 12.1 °C 77 % 13 km/h (21 km/h) 0 mm0 mm
09:12 16 °C 12 °C 77 % 13 km/h (20 km/h) 0 mm0 mm
09:06 15.8 °C 11.8 °C 77 % 13 km/h (20 km/h) 0 mm0 mm
09:00 15.7 °C 11.3 °C 75 % 13 km/h (20 km/h) 0 mm0 mm
08:54 15.9 °C 11.5 °C 75 % 13 km/h (21 km/h) 0 mm0 mm
08:48 15.9 °C 11.7 °C 76 % 12 km/h (23 km/h) 0 mm0 mm
08:42 15.6 °C 11.2 °C 75 % 10 km/h (15 km/h) 0 mm0 mm
08:36 15.4 °C 11.2 °C 76 % 10 km/h (18 km/h) 0 mm0 mm
08:30 14.8 °C 11 °C 78 % 11 km/h (18 km/h) 0 mm0 mm
08:24 14.4 °C 10.6 °C 78 % 13 km/h (18 km/h) 0 mm0 mm
08:18 14.5 °C 10.5 °C 77 % 13 km/h (18 km/h) 0 mm0 mm
08:12 14.6 °C 10.4 °C 76 % 12 km/h (18 km/h) 0 mm0 mm
08:06 14.6 °C 10.4 °C 76 % 11 km/h (18 km/h) 0 mm0 mm
08:00 14.5 °C 10.5 °C 77 % 11 km/h (18 km/h) 0 mm0 mm
07:54 14.3 °C 10.3 °C 77 % 11 km/h (16 km/h) 0 mm0 mm
07:48 14.1 °C 10.3 °C 78 % 12 km/h (16 km/h) 0 mm0 mm
07:42 13.9 °C 10.3 °C 79 % 12 km/h (16 km/h) 0 mm0 mm
07:36 13.7 °C 10.3 °C 80 % 12 km/h (15 km/h) 0 mm0 mm
07:30 13.5 °C 10.1 °C 80 % 11 km/h (15 km/h) 0 mm0 mm
07:24 13.2 °C 10 °C 81 % 11 km/h (14 km/h) 0 mm0 mm
07:18 12.9 °C 9.9 °C 82 % 10 km/h (14 km/h) 0 mm0 mm
07:12 12.6 °C 9.6 °C 82 % 9 km/h (13 km/h) 0 mm0 mm
07:06 12.7 °C 9.7 °C 82 % 9 km/h (12 km/h) 0 mm0 mm
07:00 12.7 °C 9.5 °C 81 % 10 km/h (13 km/h) 0 mm0 mm
06:54 12.8 °C 9.6 °C 81 % 10 km/h (14 km/h) 0 mm0 mm
06:48 12.9 °C 9.7 °C 81 % 11 km/h (14 km/h) 0 mm0 mm
06:42 12.9 °C 9.7 °C 81 % 10 km/h (13 km/h) 0 mm0 mm
06:36 12.8 °C 9.6 °C 81 % 9 km/h (13 km/h) 0 mm0 mm
06:30 12.9 °C 9.5 °C 80 % 10 km/h (13 km/h) 0 mm0 mm
06:24 13 °C 9.4 °C 79 % 10 km/h (14 km/h) 0 mm0 mm
06:18 13.3 °C 9.7 °C 79 % 11 km/h (16 km/h) 0 mm0 mm
06:12 13.4 °C 9.6 °C 78 % 10 km/h (14 km/h) 0 mm0 mm
06:06 13.6 °C 9.8 °C 78 % 11 km/h (17 km/h) 0 mm0 mm
06:00 13.7 °C 9.7 °C 77 % 12 km/h (17 km/h) 0 mm0 mm
05:54 13.8 °C 9.8 °C 77 % 12 km/h (16 km/h) 0 mm0 mm
05:48 13.6 °C 9.8 °C 78 % 11 km/h (16 km/h) 0 mm0 mm
05:42 13.4 °C 9.6 °C 78 % 10 km/h (13 km/h) 0 mm0 mm
05:36 13.4 °C 9.6 °C 78 % 10 km/h (13 km/h) 0 mm0 mm
05:30 13.5 °C 9.5 °C 77 % 11 km/h (14 km/h) 0 mm0 mm
05:24 13.7 °C 9.7 °C 77 % 11 km/h (14 km/h) 0 mm0 mm
05:18 13.8 °C 9.8 °C 77 % 10 km/h (14 km/h) 0 mm0 mm
05:12 13.8 °C 9.8 °C 77 % 10 km/h (13 km/h) 0 mm0 mm
05:06 13.8 °C 9.8 °C 77 % 10 km/h (13 km/h) 0 mm0 mm
05:00 13.7 °C 9.7 °C 77 % 10 km/h (14 km/h) 0 mm0 mm
04:54 13.6 °C 9.6 °C 77 % 10 km/h (14 km/h) 0 mm0 mm
04:48 13.5 °C 9.5 °C 77 % 10 km/h (13 km/h) 0 mm0 mm
04:42 13.6 °C 9.6 °C 77 % 10 km/h (14 km/h) 0 mm0 mm
04:36 13.7 °C 9.5 °C 76 % 9 km/h (13 km/h) 0 mm0 mm
04:30 13.9 °C 9.7 °C 76 % 10 km/h (14 km/h) 0 mm0 mm
04:24 13.9 °C 9.7 °C 76 % 11 km/h (15 km/h) 0 mm0 mm
04:18 13.9 °C 9.7 °C 76 % 10 km/h (14 km/h) 0 mm0 mm
04:12 14 °C 9.6 °C 75 % 10 km/h (13 km/h) 0 mm0 mm
04:06 14.1 °C 9.5 °C 74 % 10 km/h (13 km/h) 0 mm0 mm
04:00 14.4 °C 9.6 °C 73 % 10 km/h (13 km/h) 0 mm0 mm
03:54 14.4 °C 9.6 °C 73 % 10 km/h (13 km/h) 0 mm0 mm
03:48 14.5 °C 9.7 °C 73 % 10 km/h (14 km/h) 0 mm0 mm
03:42 14.5 °C 9.7 °C 73 % 11 km/h (14 km/h) 0 mm0 mm
03:36 14.5 °C 9.5 °C 72 % 11 km/h (14 km/h) 0 mm0 mm
03:30 14.6 °C 9.6 °C 72 % 11 km/h (14 km/h) 0 mm0 mm
03:24 14.6 °C 9.6 °C 72 % 11 km/h (15 km/h) 0 mm0 mm
03:18 14.6 °C 9.6 °C 72 % 10 km/h (14 km/h) 0 mm0 mm
03:12 14.9 °C 9.7 °C 71 % 10 km/h (14 km/h) 0 mm0 mm
03:06 15.1 °C 9.9 °C 71 % 10 km/h (14 km/h) 0 mm0 mm
03:00 15.2 °C 9.8 °C 70 % 10 km/h (13 km/h) 0 mm0 mm
02:54 15.2 °C 10 °C 71 % 11 km/h (15 km/h) 0 mm0 mm
02:48 15.2 °C 10 °C 71 % 11 km/h (15 km/h) 0 mm0 mm
02:42 15.2 °C 10.2 °C 72 % 11 km/h (16 km/h) 0 mm0 mm
02:36 15.2 °C 10.4 °C 73 % 10 km/h (14 km/h) 0 mm0 mm
02:30 15.2 °C 10.2 °C 72 % 10 km/h (13 km/h) 0 mm0 mm
02:24 15.2 °C 10.2 °C 72 % 10 km/h (13 km/h) 0 mm0 mm
02:18 15.1 °C 10.1 °C 72 % 10 km/h (13 km/h) 0 mm0 mm
02:12 15.3 °C 10.1 °C 71 % 9 km/h (13 km/h) 0 mm0 mm
02:06 15.4 °C 10.2 °C 71 % 9 km/h (13 km/h) 0 mm0 mm
02:00 15.4 °C 10.2 °C 71 % 9 km/h (15 km/h) 0 mm0 mm
01:54 15.2 °C 10.2 °C 72 % 10 km/h (13 km/h) 0 mm0 mm
01:48 15.1 °C 10.1 °C 72 % 10 km/h (13 km/h) 0 mm0 mm
01:42 14.9 °C 10.1 °C 73 % 9 km/h (13 km/h) 0 mm0 mm
01:36 14.9 °C 10.3 °C 74 % 9 km/h (12 km/h) 0 mm0 mm
01:30 14.7 °C 10.1 °C 74 % 9 km/h (11 km/h) 0 mm0 mm
01:24 14.6 °C 10 °C 74 % 9 km/h (12 km/h) 0 mm0 mm
01:18 14.7 °C 10.1 °C 74 % 8 km/h (12 km/h) 0 mm0 mm
01:12 14.8 °C 10 °C 73 % 8 km/h (10 km/h) 0 mm0 mm
01:06 15 °C 10 °C 72 % 7 km/h (10 km/h) 0 mm0 mm
01:00 15.3 °C 10.1 °C 71 % 8 km/h (10 km/h) 0 mm0 mm
00:54 15.6 °C 10.4 °C 71 % 9 km/h (12 km/h) 0 mm0 mm
00:48 15.9 °C 10.4 °C 70 % 9 km/h (12 km/h) 0 mm0 mm
00:42 15.9 °C 10.4 °C 70 % 8 km/h (12 km/h) 0 mm0 mm
00:36 16 °C 10.7 °C 71 % 8 km/h (12 km/h) 0 mm0 mm
00:30 16 °C 10.5 °C 70 % 9 km/h (12 km/h) 0 mm0 mm
00:24 15.8 °C 10.5 °C 71 % 8 km/h (11 km/h) 0 mm0 mm
00:18 15.8 °C 10.5 °C 71 % 7 km/h (10 km/h) 0 mm0 mm
00:12 16 °C 10.5 °C 70 % 8 km/h (11 km/h) 0 mm0 mm
00:06 16.2 °C 10.5 °C 69 % 8 km/h (10 km/h) 0 mm0 mm
00:00 16.1 °C 10.6 °C 70 % 7 km/h (10 km/h) 0 mm0 mm

Données via Météo-France

Relevés météo à Rocroi

Cette page rassemble les observations de la station de Rocroi : température, humidité, vent, précipitations et pression atmosphérique. Les graphiques facilitent le suivi de la journée, tandis que le tableau donne accès aux mesures horaires et infra-horaires disponibles.

Pour replacer ces mesures dans leur contexte, consultez la climatologie de Rocroi ainsi que ses normales et records. Retrouvez aussi la carte des observations météo en temps réel.